sensor_id;sensor_type;location;lat;lon;timestamp;P1;durP1;ratioP1;P2;durP2;ratioP2
17451;SDS011;8843;48.838;9.324;2023-05-07T00:02:04;2.57;;;2.13;;
17451;SDS011;8843;48.838;9.324;2023-05-07T00:04:30;3.03;;;2.50;;
17451;SDS011;8843;48.838;9.324;2023-05-07T00:07:03;3.70;;;2.23;;
17451;SDS011;8843;48.838;9.324;2023-05-07T00:09:30;5.63;;;2.73;;
17451;SDS011;8843;48.838;9.324;2023-05-07T00:11:57;7.40;;;3.10;;
17451;SDS011;8843;48.838;9.324;2023-05-07T00:14:24;2.90;;;2.53;;
17451;SDS011;8843;48.838;9.324;2023-05-07T00:16:51;4.83;;;3.00;;
17451;SDS011;8843;48.838;9.324;2023-05-07T00:19:18;4.13;;;2.40;;
17451;SDS011;8843;48.838;9.324;2023-05-07T00:21:45;4.17;;;2.17;;
17451;SDS011;8843;48.838;9.324;2023-05-07T00:24:13;2.80;;;2.47;;
17451;SDS011;8843;48.838;9.324;2023-05-07T00:26:40;3.87;;;2.20;;
17451;SDS011;8843;48.838;9.324;2023-05-07T00:29:07;2.60;;;2.40;;
17451;SDS011;8843;48.838;9.324;2023-05-07T00:31:34;3.53;;;2.47;;
17451;SDS011;8843;48.838;9.324;2023-05-07T00:34:01;2.73;;;2.20;;
17451;SDS011;8843;48.838;9.324;2023-05-07T00:36:28;3.13;;;2.03;;
17451;SDS011;8843;48.838;9.324;2023-05-07T00:38:56;2.80;;;2.17;;
17451;SDS011;8843;48.838;9.324;2023-05-07T00:41:26;2.63;;;2.33;;
17451;SDS011;8843;48.838;9.324;2023-05-07T00:43:53;4.00;;;2.30;;
17451;SDS011;8843;48.838;9.324;2023-05-07T00:46:20;4.33;;;2.60;;
17451;SDS011;8843;48.838;9.324;2023-05-07T00:48:47;3.30;;;2.20;;
17451;SDS011;8843;48.838;9.324;2023-05-07T00:51:15;3.73;;;2.20;;
17451;SDS011;8843;48.838;9.324;2023-05-07T00:53:43;2.60;;;2.40;;
17451;SDS011;8843;48.838;9.324;2023-05-07T00:56:11;4.77;;;2.30;;
17451;SDS011;8843;48.838;9.324;2023-05-07T00:58:39;2.83;;;2.00;;
17451;SDS011;8843;48.838;9.324;2023-05-07T01:01:06;2.37;;;2.17;;
17451;SDS011;8843;48.838;9.324;2023-05-07T01:03:33;3.60;;;2.30;;
17451;SDS011;8843;48.838;9.324;2023-05-07T01:06:00;3.40;;;2.10;;
17451;SDS011;8843;48.838;9.324;2023-05-07T01:08:28;4.43;;;2.43;;
17451;SDS011;8843;48.838;9.324;2023-05-07T01:10:56;3.83;;;2.47;;
17451;SDS011;8843;48.838;9.324;2023-05-07T01:13:24;3.07;;;2.50;;
17451;SDS011;8843;48.838;9.324;2023-05-07T01:15:52;3.97;;;2.30;;
17451;SDS011;8843;48.838;9.324;2023-05-07T01:18:20;4.47;;;2.20;;
17451;SDS011;8843;48.838;9.324;2023-05-07T01:20:47;5.23;;;2.43;;
17451;SDS011;8843;48.838;9.324;2023-05-07T01:23:15;3.30;;;2.10;;
17451;SDS011;8843;48.838;9.324;2023-05-07T01:25:44;6.27;;;2.63;;
17451;SDS011;8843;48.838;9.324;2023-05-07T01:28:18;3.00;;;2.37;;
17451;SDS011;8843;48.838;9.324;2023-05-07T01:30:45;3.10;;;2.37;;
17451;SDS011;8843;48.838;9.324;2023-05-07T01:33:15;2.93;;;2.30;;
17451;SDS011;8843;48.838;9.324;2023-05-07T01:35:47;3.83;;;2.40;;
17451;SDS011;8843;48.838;9.324;2023-05-07T01:38:17;3.70;;;2.37;;
17451;SDS011;8843;48.838;9.324;2023-05-07T01:40:45;2.20;;;2.10;;
17451;SDS011;8843;48.838;9.324;2023-05-07T01:43:12;3.80;;;2.20;;
17451;SDS011;8843;48.838;9.324;2023-05-07T01:45:39;2.50;;;2.30;;
17451;SDS011;8843;48.838;9.324;2023-05-07T01:48:07;2.70;;;2.50;;
17451;SDS011;8843;48.838;9.324;2023-05-07T01:50:36;4.03;;;2.23;;
17451;SDS011;8843;48.838;9.324;2023-05-07T01:53:03;4.27;;;2.17;;
17451;SDS011;8843;48.838;9.324;2023-05-07T01:55:31;2.87;;;2.20;;
17451;SDS011;8843;48.838;9.324;2023-05-07T01:57:58;3.73;;;2.03;;
17451;SDS011;8843;48.838;9.324;2023-05-07T02:00:25;3.77;;;2.20;;
17451;SDS011;8843;48.838;9.324;2023-05-07T02:02:52;2.60;;;2.00;;
17451;SDS011;8843;48.838;9.324;2023-05-07T02:05:19;2.60;;;2.20;;
17451;SDS011;8843;48.838;9.324;2023-05-07T02:07:46;2.60;;;2.40;;
17451;SDS011;8843;48.838;9.324;2023-05-07T02:10:13;5.97;;;2.80;;
17451;SDS011;8843;48.838;9.324;2023-05-07T02:12:41;4.03;;;2.23;;
17451;SDS011;8843;48.838;9.324;2023-05-07T02:15:09;2.20;;;1.97;;
17451;SDS011;8843;48.838;9.324;2023-05-07T02:20:06;2.97;;;2.07;;
17451;SDS011;8843;48.838;9.324;2023-05-07T02:22:38;2.90;;;2.70;;
17451;SDS011;8843;48.838;9.324;2023-05-07T02:25:05;2.77;;;2.10;;
17451;SDS011;8843;48.838;9.324;2023-05-07T02:27:32;3.30;;;2.20;;
17451;SDS011;8843;48.838;9.324;2023-05-07T02:30:00;2.63;;;2.10;;
17451;SDS011;8843;48.838;9.324;2023-05-07T02:32:28;2.87;;;2.20;;
17451;SDS011;8843;48.838;9.324;2023-05-07T02:34:55;2.60;;;2.03;;
17451;SDS011;8843;48.838;9.324;2023-05-07T02:37:22;2.90;;;2.10;;
17451;SDS011;8843;48.838;9.324;2023-05-07T02:39:48;2.00;;;1.83;;
17451;SDS011;8843;48.838;9.324;2023-05-07T02:42:15;3.17;;;1.90;;
17451;SDS011;8843;48.838;9.324;2023-05-07T02:44:42;5.53;;;2.20;;
17451;SDS011;8843;48.838;9.324;2023-05-07T02:47:10;2.67;;;2.47;;
17451;SDS011;8843;48.838;9.324;2023-05-07T02:49:40;3.77;;;2.67;;
17451;SDS011;8843;48.838;9.324;2023-05-07T02:52:07;3.27;;;2.40;;
17451;SDS011;8843;48.838;9.324;2023-05-07T02:54:34;4.33;;;1.93;;
17451;SDS011;8843;48.838;9.324;2023-05-07T02:57:01;2.10;;;1.90;;
17451;SDS011;8843;48.838;9.324;2023-05-07T02:59:28;2.77;;;2.43;;
17451;SDS011;8843;48.838;9.324;2023-05-07T03:01:55;2.40;;;2.20;;
17451;SDS011;8843;48.838;9.324;2023-05-07T03:04:23;3.40;;;2.40;;
17451;SDS011;8843;48.838;9.324;2023-05-07T03:06:50;2.63;;;2.30;;
17451;SDS011;8843;48.838;9.324;2023-05-07T03:09:17;2.37;;;2.10;;
17451;SDS011;8843;48.838;9.324;2023-05-07T03:11:44;3.27;;;2.50;;
17451;SDS011;8843;48.838;9.324;2023-05-07T03:14:11;4.37;;;2.40;;
17451;SDS011;8843;48.838;9.324;2023-05-07T03:16:38;2.30;;;2.10;;
17451;SDS011;8843;48.838;9.324;2023-05-07T03:19:05;5.87;;;2.13;;
17451;SDS011;8843;48.838;9.324;2023-05-07T03:21:33;5.00;;;2.40;;
17451;SDS011;8843;48.838;9.324;2023-05-07T03:24:00;2.80;;;2.27;;
17451;SDS011;8843;48.838;9.324;2023-05-07T03:26:27;2.20;;;2.00;;
17451;SDS011;8843;48.838;9.324;2023-05-07T03:28:54;3.67;;;2.33;;
17451;SDS011;8843;48.838;9.324;2023-05-07T03:31:21;3.70;;;2.20;;
17451;SDS011;8843;48.838;9.324;2023-05-07T03:33:51;2.63;;;2.27;;
17451;SDS011;8843;48.838;9.324;2023-05-07T03:36:19;2.83;;;2.37;;
17451;SDS011;8843;48.838;9.324;2023-05-07T03:38:48;3.33;;;2.20;;
17451;SDS011;8843;48.838;9.324;2023-05-07T03:41:15;3.80;;;2.37;;
17451;SDS011;8843;48.838;9.324;2023-05-07T03:43:42;2.17;;;1.97;;
17451;SDS011;8843;48.838;9.324;2023-05-07T03:46:09;3.07;;;2.63;;
17451;SDS011;8843;48.838;9.324;2023-05-07T03:48:36;2.57;;;2.10;;
17451;SDS011;8843;48.838;9.324;2023-05-07T03:51:03;3.73;;;2.13;;
17451;SDS011;8843;48.838;9.324;2023-05-07T03:53:30;4.70;;;2.30;;
17451;SDS011;8843;48.838;9.324;2023-05-07T03:55:58;2.73;;;2.17;;
17451;SDS011;8843;48.838;9.324;2023-05-07T03:58:25;3.73;;;2.17;;
17451;SDS011;8843;48.838;9.324;2023-05-07T04:00:52;4.10;;;2.23;;
17451;SDS011;8843;48.838;9.324;2023-05-07T04:03:18;2.90;;;2.03;;
17451;SDS011;8843;48.838;9.324;2023-05-07T04:05:45;2.73;;;2.17;;
17451;SDS011;8843;48.838;9.324;2023-05-07T04:08:12;2.43;;;1.93;;
17451;SDS011;8843;48.838;9.324;2023-05-07T04:10:39;2.33;;;2.10;;
17451;SDS011;8843;48.838;9.324;2023-05-07T04:13:07;2.63;;;1.97;;
17451;SDS011;8843;48.838;9.324;2023-05-07T04:15:35;2.33;;;2.10;;
17451;SDS011;8843;48.838;9.324;2023-05-07T04:18:02;2.33;;;2.10;;
17451;SDS011;8843;48.838;9.324;2023-05-07T04:20:29;3.03;;;2.30;;
17451;SDS011;8843;48.838;9.324;2023-05-07T04:22:55;4.23;;;2.20;;
17451;SDS011;8843;48.838;9.324;2023-05-07T04:25:22;2.27;;;2.07;;
17451;SDS011;8843;48.838;9.324;2023-05-07T04:27:51;2.40;;;2.20;;
17451;SDS011;8843;48.838;9.324;2023-05-07T04:30:19;2.80;;;2.60;;
17451;SDS011;8843;48.838;9.324;2023-05-07T04:32:46;2.47;;;2.13;;
17451;SDS011;8843;48.838;9.324;2023-05-07T04:35:14;2.60;;;2.23;;
17451;SDS011;8843;48.838;9.324;2023-05-07T04:37:41;3.10;;;2.40;;
17451;SDS011;8843;48.838;9.324;2023-05-07T04:40:08;2.40;;;2.17;;
17451;SDS011;8843;48.838;9.324;2023-05-07T04:42:35;3.07;;;2.17;;
17451;SDS011;8843;48.838;9.324;2023-05-07T04:45:02;2.93;;;2.73;;
17451;SDS011;8843;48.838;9.324;2023-05-07T04:47:31;2.47;;;2.27;;
17451;SDS011;8843;48.838;9.324;2023-05-07T04:49:58;4.70;;;3.00;;
17451;SDS011;8843;48.838;9.324;2023-05-07T04:52:25;3.60;;;2.30;;
17451;SDS011;8843;48.838;9.324;2023-05-07T04:54:51;2.43;;;2.23;;
17451;SDS011;8843;48.838;9.324;2023-05-07T04:57:18;2.10;;;1.90;;
17451;SDS011;8843;48.838;9.324;2023-05-07T04:59:45;3.53;;;2.23;;
17451;SDS011;8843;48.838;9.324;2023-05-07T05:02:12;2.87;;;2.57;;
17451;SDS011;8843;48.838;9.324;2023-05-07T05:04:40;3.13;;;2.50;;
17451;SDS011;8843;48.838;9.324;2023-05-07T05:07:07;2.17;;;1.97;;
17451;SDS011;8843;48.838;9.324;2023-05-07T05:09:34;2.80;;;2.23;;
17451;SDS011;8843;48.838;9.324;2023-05-07T05:12:01;3.13;;;2.20;;
17451;SDS011;8843;48.838;9.324;2023-05-07T05:14:28;2.63;;;2.43;;
17451;SDS011;8843;48.838;9.324;2023-05-07T05:16:55;2.80;;;1.70;;
17451;SDS011;8843;48.838;9.324;2023-05-07T05:19:22;2.40;;;2.20;;
17451;SDS011;8843;48.838;9.324;2023-05-07T05:21:50;2.27;;;2.10;;
17451;SDS011;8843;48.838;9.324;2023-05-07T05:24:17;3.37;;;2.30;;
17451;SDS011;8843;48.838;9.324;2023-05-07T05:26:45;4.27;;;2.27;;
17451;SDS011;8843;48.838;9.324;2023-05-07T05:29:12;3.07;;;2.53;;
17451;SDS011;8843;48.838;9.324;2023-05-07T05:31:39;3.73;;;2.10;;
17451;SDS011;8843;48.838;9.324;2023-05-07T05:34:06;2.33;;;2.13;;
17451;SDS011;8843;48.838;9.324;2023-05-07T05:36:33;2.70;;;2.10;;
17451;SDS011;8843;48.838;9.324;2023-05-07T05:39:01;2.47;;;2.27;;
17451;SDS011;8843;48.838;9.324;2023-05-07T05:41:28;2.83;;;2.07;;
17451;SDS011;8843;48.838;9.324;2023-05-07T05:43:55;2.90;;;2.00;;
17451;SDS011;8843;48.838;9.324;2023-05-07T05:46:22;3.03;;;2.20;;
17451;SDS011;8843;48.838;9.324;2023-05-07T05:48:49;2.87;;;1.90;;
17451;SDS011;8843;48.838;9.324;2023-05-07T05:51:16;4.30;;;2.27;;
17451;SDS011;8843;48.838;9.324;2023-05-07T05:53:43;4.97;;;2.40;;
17451;SDS011;8843;48.838;9.324;2023-05-07T05:56:11;2.90;;;2.17;;
17451;SDS011;8843;48.838;9.324;2023-05-07T05:58:38;3.10;;;2.53;;
17451;SDS011;8843;48.838;9.324;2023-05-07T06:01:05;2.27;;;1.87;;
17451;SDS011;8843;48.838;9.324;2023-05-07T06:03:32;2.60;;;2.20;;
17451;SDS011;8843;48.838;9.324;2023-05-07T06:05:58;2.30;;;2.10;;
17451;SDS011;8843;48.838;9.324;2023-05-07T06:08:28;3.20;;;2.27;;
17451;SDS011;8843;48.838;9.324;2023-05-07T06:10:55;2.37;;;2.17;;
17451;SDS011;8843;48.838;9.324;2023-05-07T06:13:24;2.67;;;2.10;;
17451;SDS011;8843;48.838;9.324;2023-05-07T06:15:51;3.73;;;2.17;;
17451;SDS011;8843;48.838;9.324;2023-05-07T06:18:17;2.33;;;2.13;;
17451;SDS011;8843;48.838;9.324;2023-05-07T06:20:44;2.43;;;2.23;;
17451;SDS011;8843;48.838;9.324;2023-05-07T06:23:11;2.77;;;2.20;;
17451;SDS011;8843;48.838;9.324;2023-05-07T06:25:38;3.37;;;2.00;;
17451;SDS011;8843;48.838;9.324;2023-05-07T06:28:05;3.67;;;1.97;;
17451;SDS011;8843;48.838;9.324;2023-05-07T06:30:34;2.33;;;2.13;;
17451;SDS011;8843;48.838;9.324;2023-05-07T06:33:01;2.67;;;2.10;;
17451;SDS011;8843;48.838;9.324;2023-05-07T06:35:28;2.50;;;2.10;;
17451;SDS011;8843;48.838;9.324;2023-05-07T06:37:55;2.40;;;2.17;;
17451;SDS011;8843;48.838;9.324;2023-05-07T06:40:22;2.13;;;1.70;;
17451;SDS011;8843;48.838;9.324;2023-05-07T06:42:49;2.30;;;2.10;;
17451;SDS011;8843;48.838;9.324;2023-05-07T06:45:16;2.97;;;2.10;;
17451;SDS011;8843;48.838;9.324;2023-05-07T06:47:44;4.23;;;2.23;;
17451;SDS011;8843;48.838;9.324;2023-05-07T06:50:11;2.17;;;1.97;;
17451;SDS011;8843;48.838;9.324;2023-05-07T06:52:38;2.90;;;2.20;;
17451;SDS011;8843;48.838;9.324;2023-05-07T06:55:05;2.33;;;1.93;;
17451;SDS011;8843;48.838;9.324;2023-05-07T06:57:33;2.20;;;2.10;;
17451;SDS011;8843;48.838;9.324;2023-05-07T07:00:00;4.80;;;2.50;;
17451;SDS011;8843;48.838;9.324;2023-05-07T07:02:27;2.27;;;2.07;;
17451;SDS011;8843;48.838;9.324;2023-05-07T07:04:55;2.13;;;1.90;;
17451;SDS011;8843;48.838;9.324;2023-05-07T07:07:22;2.57;;;2.37;;
17451;SDS011;8843;48.838;9.324;2023-05-07T07:09:49;4.97;;;2.10;;
17451;SDS011;8843;48.838;9.324;2023-05-07T07:12:16;3.23;;;2.33;;
17451;SDS011;8843;48.838;9.324;2023-05-07T07:14:43;2.97;;;2.30;;
17451;SDS011;8843;48.838;9.324;2023-05-07T07:17:11;4.10;;;2.30;;
17451;SDS011;8843;48.838;9.324;2023-05-07T07:19:38;3.93;;;2.40;;
17451;SDS011;8843;48.838;9.324;2023-05-07T07:22:06;4.37;;;2.30;;
17451;SDS011;8843;48.838;9.324;2023-05-07T07:24:33;2.53;;;2.13;;
17451;SDS011;8843;48.838;9.324;2023-05-07T07:27:00;2.67;;;2.00;;
17451;SDS011;8843;48.838;9.324;2023-05-07T07:29:26;3.93;;;2.27;;
17451;SDS011;8843;48.838;9.324;2023-05-07T07:31:53;3.03;;;2.07;;
17451;SDS011;8843;48.838;9.324;2023-05-07T07:34:20;3.07;;;2.00;;
17451;SDS011;8843;48.838;9.324;2023-05-07T07:36:47;2.83;;;2.10;;
17451;SDS011;8843;48.838;9.324;2023-05-07T07:39:15;2.80;;;2.13;;
17451;SDS011;8843;48.838;9.324;2023-05-07T07:41:42;6.93;;;2.40;;
17451;SDS011;8843;48.838;9.324;2023-05-07T07:44:09;2.53;;;2.10;;
17451;SDS011;8843;48.838;9.324;2023-05-07T07:46:37;2.83;;;1.90;;
17451;SDS011;8843;48.838;9.324;2023-05-07T07:49:04;3.67;;;2.10;;
17451;SDS011;8843;48.838;9.324;2023-05-07T07:51:31;2.20;;;2.00;;
17451;SDS011;8843;48.838;9.324;2023-05-07T07:53:58;2.07;;;1.93;;
17451;SDS011;8843;48.838;9.324;2023-05-07T07:56:27;2.80;;;2.00;;
17451;SDS011;8843;48.838;9.324;2023-05-07T07:58:54;3.00;;;2.33;;
17451;SDS011;8843;48.838;9.324;2023-05-07T08:01:20;3.93;;;2.50;;
17451;SDS011;8843;48.838;9.324;2023-05-07T08:03:47;2.20;;;2.00;;
17451;SDS011;8843;48.838;9.324;2023-05-07T08:06:14;2.43;;;2.23;;
17451;SDS011;8843;48.838;9.324;2023-05-07T08:08:41;3.07;;;2.40;;
17451;SDS011;8843;48.838;9.324;2023-05-07T08:11:08;2.37;;;2.17;;
17451;SDS011;8843;48.838;9.324;2023-05-07T08:13:36;2.50;;;2.17;;
17451;SDS011;8843;48.838;9.324;2023-05-07T08:16:05;2.10;;;2.00;;
17451;SDS011;8843;48.838;9.324;2023-05-07T08:18:31;2.40;;;2.20;;
17451;SDS011;8843;48.838;9.324;2023-05-07T08:20:59;2.27;;;1.93;;
17451;SDS011;8843;48.838;9.324;2023-05-07T08:23:25;2.00;;;1.90;;
17451;SDS011;8843;48.838;9.324;2023-05-07T08:25:52;3.03;;;2.53;;
17451;SDS011;8843;48.838;9.324;2023-05-07T08:28:19;3.90;;;2.37;;
17451;SDS011;8843;48.838;9.324;2023-05-07T08:30:48;2.50;;;2.30;;
17451;SDS011;8843;48.838;9.324;2023-05-07T08:33:15;3.60;;;2.83;;
17451;SDS011;8843;48.838;9.324;2023-05-07T08:35:42;3.53;;;2.47;;
17451;SDS011;8843;48.838;9.324;2023-05-07T08:38:09;4.20;;;2.27;;
17451;SDS011;8843;48.838;9.324;2023-05-07T08:40:36;2.30;;;2.10;;
17451;SDS011;8843;48.838;9.324;2023-05-07T08:43:05;2.37;;;2.27;;
17451;SDS011;8843;48.838;9.324;2023-05-07T08:45:33;2.47;;;1.70;;
17451;SDS011;8843;48.838;9.324;2023-05-07T08:48:03;2.50;;;2.30;;
17451;SDS011;8843;48.838;9.324;2023-05-07T08:50:35;3.50;;;2.73;;
17451;SDS011;8843;48.838;9.324;2023-05-07T08:53:02;2.80;;;2.60;;
17451;SDS011;8843;48.838;9.324;2023-05-07T08:55:29;3.80;;;2.33;;
17451;SDS011;8843;48.838;9.324;2023-05-07T08:57:56;2.10;;;2.00;;
17451;SDS011;8843;48.838;9.324;2023-05-07T09:00:23;2.40;;;2.20;;
17451;SDS011;8843;48.838;9.324;2023-05-07T09:02:51;2.57;;;2.30;;
17451;SDS011;8843;48.838;9.324;2023-05-07T09:05:20;4.00;;;2.40;;
17451;SDS011;8843;48.838;9.324;2023-05-07T09:07:47;2.50;;;2.30;;
17451;SDS011;8843;48.838;9.324;2023-05-07T09:10:14;2.30;;;2.10;;
17451;SDS011;8843;48.838;9.324;2023-05-07T09:12:41;3.17;;;2.90;;
17451;SDS011;8843;48.838;9.324;2023-05-07T09:15:08;2.80;;;2.60;;
17451;SDS011;8843;48.838;9.324;2023-05-07T09:17:35;2.10;;;1.90;;
17451;SDS011;8843;48.838;9.324;2023-05-07T09:20:02;2.07;;;1.93;;
17451;SDS011;8843;48.838;9.324;2023-05-07T09:22:32;2.60;;;2.40;;
17451;SDS011;8843;48.838;9.324;2023-05-07T09:24:59;4.03;;;2.37;;
17451;SDS011;8843;48.838;9.324;2023-05-07T09:27:26;5.37;;;2.87;;
17451;SDS011;8843;48.838;9.324;2023-05-07T09:29:53;4.33;;;2.50;;
17451;SDS011;8843;48.838;9.324;2023-05-07T09:32:19;4.63;;;2.60;;
17451;SDS011;8843;48.838;9.324;2023-05-07T09:34:46;2.37;;;2.20;;
17451;SDS011;8843;48.838;9.324;2023-05-07T09:37:13;2.60;;;2.40;;
17451;SDS011;8843;48.838;9.324;2023-05-07T09:39:43;2.70;;;2.40;;
17451;SDS011;8843;48.838;9.324;2023-05-07T09:42:11;2.27;;;2.10;;
17451;SDS011;8843;48.838;9.324;2023-05-07T09:44:40;2.50;;;2.10;;
17451;SDS011;8843;48.838;9.324;2023-05-07T09:47:07;3.90;;;2.43;;
17451;SDS011;8843;48.838;9.324;2023-05-07T09:49:35;3.00;;;2.33;;
17451;SDS011;8843;48.838;9.324;2023-05-07T09:52:03;3.03;;;2.60;;
17451;SDS011;8843;48.838;9.324;2023-05-07T09:54:36;4.70;;;2.50;;
17451;SDS011;8843;48.838;9.324;2023-05-07T09:57:05;5.43;;;2.43;;
17451;SDS011;8843;48.838;9.324;2023-05-07T09:59:33;3.67;;;2.70;;
17451;SDS011;8843;48.838;9.324;2023-05-07T10:02:03;4.67;;;3.03;;
17451;SDS011;8843;48.838;9.324;2023-05-07T10:04:30;3.80;;;2.47;;
17451;SDS011;8843;48.838;9.324;2023-05-07T10:06:57;4.23;;;2.10;;
17451;SDS011;8843;48.838;9.324;2023-05-07T10:09:26;2.80;;;2.30;;
17451;SDS011;8843;48.838;9.324;2023-05-07T10:11:53;2.00;;;1.90;;
17451;SDS011;8843;48.838;9.324;2023-05-07T10:14:22;2.07;;;1.73;;
17451;SDS011;8843;48.838;9.324;2023-05-07T10:16:50;3.67;;;2.40;;
17451;SDS011;8843;48.838;9.324;2023-05-07T10:19:19;2.87;;;2.17;;
17451;SDS011;8843;48.838;9.324;2023-05-07T10:21:48;4.13;;;1.90;;
17451;SDS011;8843;48.838;9.324;2023-05-07T10:24:21;2.57;;;2.37;;
17451;SDS011;8843;48.838;9.324;2023-05-07T10:26:52;2.83;;;2.00;;
17451;SDS011;8843;48.838;9.324;2023-05-07T10:29:24;2.90;;;2.00;;
17451;SDS011;8843;48.838;9.324;2023-05-07T10:31:59;4.53;;;2.30;;
17451;SDS011;8843;48.838;9.324;2023-05-07T10:34:47;5.10;;;2.27;;
17451;SDS011;8843;48.838;9.324;2023-05-07T10:37:17;2.40;;;2.20;;
17451;SDS011;8843;48.838;9.324;2023-05-07T10:39:44;3.53;;;1.97;;
17451;SDS011;8843;48.838;9.324;2023-05-07T10:42:12;2.53;;;1.90;;
17451;SDS011;8843;48.838;9.324;2023-05-07T10:44:41;2.40;;;2.00;;
17451;SDS011;8843;48.838;9.324;2023-05-07T10:47:09;2.77;;;1.80;;
17451;SDS011;8843;48.838;9.324;2023-05-07T10:49:37;3.57;;;1.90;;
17451;SDS011;8843;48.838;9.324;2023-05-07T10:52:42;3.70;;;2.07;;
17451;SDS011;8843;48.838;9.324;2023-05-07T10:55:19;2.10;;;1.90;;
17451;SDS011;8843;48.838;9.324;2023-05-07T10:57:47;3.70;;;1.93;;
17451;SDS011;8843;48.838;9.324;2023-05-07T11:03:12;2.60;;;1.73;;
17451;SDS011;8843;48.838;9.324;2023-05-07T11:05:40;5.03;;;2.27;;
17451;SDS011;8843;48.838;9.324;2023-05-07T11:08:08;3.27;;;2.00;;
17451;SDS011;8843;48.838;9.324;2023-05-07T11:10:48;3.13;;;1.67;;
17451;SDS011;8843;48.838;9.324;2023-05-07T11:13:16;2.33;;;2.10;;
17451;SDS011;8843;48.838;9.324;2023-05-07T11:15:45;3.20;;;1.70;;
17451;SDS011;8843;48.838;9.324;2023-05-07T11:18:13;1.87;;;1.60;;
17451;SDS011;8843;48.838;9.324;2023-05-07T11:20:48;2.17;;;1.97;;
17451;SDS011;8843;48.838;9.324;2023-05-07T11:26:21;2.50;;;2.10;;
17451;SDS011;8843;48.838;9.324;2023-05-07T11:28:48;3.87;;;1.90;;
17451;SDS011;8843;48.838;9.324;2023-05-07T11:31:20;2.63;;;1.83;;
17451;SDS011;8843;48.838;9.324;2023-05-07T11:33:49;4.67;;;1.80;;
17451;SDS011;8843;48.838;9.324;2023-05-07T11:36:18;4.27;;;2.00;;
17451;SDS011;8843;48.838;9.324;2023-05-07T11:38:45;4.30;;;1.73;;
17451;SDS011;8843;48.838;9.324;2023-05-07T11:41:12;2.00;;;1.80;;
17451;SDS011;8843;48.838;9.324;2023-05-07T11:43:53;3.07;;;1.80;;
17451;SDS011;8843;48.838;9.324;2023-05-07T11:46:22;4.30;;;1.60;;
17451;SDS011;8843;48.838;9.324;2023-05-07T11:48:49;2.33;;;1.80;;
17451;SDS011;8843;48.838;9.324;2023-05-07T11:51:20;6.07;;;2.00;;
17451;SDS011;8843;48.838;9.324;2023-05-07T11:53:47;2.00;;;1.80;;
17451;SDS011;8843;48.838;9.324;2023-05-07T11:56:15;1.60;;;1.50;;
17451;SDS011;8843;48.838;9.324;2023-05-07T11:58:44;4.13;;;2.20;;
17451;SDS011;8843;48.838;9.324;2023-05-07T12:01:12;1.90;;;1.80;;
17451;SDS011;8843;48.838;9.324;2023-05-07T12:03:41;2.50;;;2.00;;
17451;SDS011;8843;48.838;9.324;2023-05-07T12:06:10;1.60;;;1.50;;
17451;SDS011;8843;48.838;9.324;2023-05-07T12:08:38;2.63;;;1.80;;
17451;SDS011;8843;48.838;9.324;2023-05-07T12:11:09;1.80;;;1.70;;
17451;SDS011;8843;48.838;9.324;2023-05-07T12:13:39;2.50;;;2.10;;
17451;SDS011;8843;48.838;9.324;2023-05-07T12:16:07;2.23;;;2.03;;
17451;SDS011;8843;48.838;9.324;2023-05-07T12:18:34;3.07;;;2.30;;
17451;SDS011;8843;48.838;9.324;2023-05-07T12:21:04;2.17;;;1.97;;
17451;SDS011;8843;48.838;9.324;2023-05-07T12:23:32;2.77;;;2.00;;
17451;SDS011;8843;48.838;9.324;2023-05-07T12:26:00;1.97;;;1.87;;
17451;SDS011;8843;48.838;9.324;2023-05-07T12:28:28;2.07;;;1.87;;
17451;SDS011;8843;48.838;9.324;2023-05-07T12:30:55;1.83;;;1.70;;
17451;SDS011;8843;48.838;9.324;2023-05-07T12:33:23;2.53;;;1.83;;
17451;SDS011;8843;48.838;9.324;2023-05-07T12:35:53;2.40;;;1.70;;
17451;SDS011;8843;48.838;9.324;2023-05-07T12:38:23;1.80;;;1.50;;
17451;SDS011;8843;48.838;9.324;2023-05-07T12:40:50;2.00;;;1.80;;
17451;SDS011;8843;48.838;9.324;2023-05-07T12:43:21;2.37;;;2.10;;
17451;SDS011;8843;48.838;9.324;2023-05-07T12:45:51;2.17;;;1.80;;
17451;SDS011;8843;48.838;9.324;2023-05-07T12:48:19;2.20;;;1.97;;
17451;SDS011;8843;48.838;9.324;2023-05-07T12:50:49;3.27;;;1.77;;
17451;SDS011;8843;48.838;9.324;2023-05-07T12:53:16;2.93;;;2.63;;
17451;SDS011;8843;48.838;9.324;2023-05-07T12:55:47;2.20;;;2.00;;
17451;SDS011;8843;48.838;9.324;2023-05-07T12:58:16;1.80;;;1.70;;
17451;SDS011;8843;48.838;9.324;2023-05-07T13:00:43;3.40;;;2.00;;
17451;SDS011;8843;48.838;9.324;2023-05-07T13:03:16;3.97;;;2.10;;
17451;SDS011;8843;48.838;9.324;2023-05-07T13:05:48;1.70;;;1.60;;
17451;SDS011;8843;48.838;9.324;2023-05-07T13:08:23;1.67;;;1.50;;
17451;SDS011;8843;48.838;9.324;2023-05-07T13:10:56;2.33;;;2.13;;
17451;SDS011;8843;48.838;9.324;2023-05-07T13:13:23;1.57;;;1.47;;
17451;SDS011;8843;48.838;9.324;2023-05-07T13:15:50;3.20;;;1.80;;
17451;SDS011;8843;48.838;9.324;2023-05-07T13:18:17;1.83;;;1.63;;
17451;SDS011;8843;48.838;9.324;2023-05-07T13:20:44;1.80;;;1.70;;
17451;SDS011;8843;48.838;9.324;2023-05-07T13:23:11;3.87;;;1.83;;
17451;SDS011;8843;48.838;9.324;2023-05-07T13:25:38;3.20;;;1.80;;
17451;SDS011;8843;48.838;9.324;2023-05-07T13:28:06;1.97;;;1.57;;
17451;SDS011;8843;48.838;9.324;2023-05-07T13:30:33;2.63;;;1.97;;
17451;SDS011;8843;48.838;9.324;2023-05-07T13:33:00;2.60;;;2.00;;
17451;SDS011;8843;48.838;9.324;2023-05-07T13:35:27;2.67;;;2.07;;
17451;SDS011;8843;48.838;9.324;2023-05-07T13:37:55;2.93;;;2.10;;
17451;SDS011;8843;48.838;9.324;2023-05-07T13:40:22;3.00;;;1.80;;
17451;SDS011;8843;48.838;9.324;2023-05-07T13:42:49;1.70;;;1.60;;
17451;SDS011;8843;48.838;9.324;2023-05-07T13:45:17;3.10;;;1.63;;
17451;SDS011;8843;48.838;9.324;2023-05-07T13:47:44;2.53;;;1.50;;
17451;SDS011;8843;48.838;9.324;2023-05-07T13:50:14;2.23;;;1.20;;
17451;SDS011;8843;48.838;9.324;2023-05-07T13:52:41;2.83;;;1.30;;
17451;SDS011;8843;48.838;9.324;2023-05-07T13:55:10;2.87;;;1.37;;
17451;SDS011;8843;48.838;9.324;2023-05-07T13:57:37;1.60;;;1.20;;
17451;SDS011;8843;48.838;9.324;2023-05-07T14:00:05;2.83;;;1.70;;
17451;SDS011;8843;48.838;9.324;2023-05-07T14:02:34;1.30;;;1.23;;
17451;SDS011;8843;48.838;9.324;2023-05-07T14:05:01;1.97;;;1.23;;
17451;SDS011;8843;48.838;9.324;2023-05-07T14:07:28;2.90;;;1.37;;
17451;SDS011;8843;48.838;9.324;2023-05-07T14:09:56;4.23;;;1.27;;
17451;SDS011;8843;48.838;9.324;2023-05-07T14:12:23;1.30;;;1.10;;
17451;SDS011;8843;48.838;9.324;2023-05-07T14:14:50;1.53;;;1.10;;
17451;SDS011;8843;48.838;9.324;2023-05-07T14:17:17;1.97;;;1.40;;
17451;SDS011;8843;48.838;9.324;2023-05-07T14:19:45;2.93;;;1.47;;
17451;SDS011;8843;48.838;9.324;2023-05-07T14:22:13;4.17;;;1.60;;
17451;SDS011;8843;48.838;9.324;2023-05-07T14:24:40;2.40;;;1.70;;
17451;SDS011;8843;48.838;9.324;2023-05-07T14:27:07;4.17;;;1.50;;
17451;SDS011;8843;48.838;9.324;2023-05-07T14:29:34;4.60;;;2.17;;
17451;SDS011;8843;48.838;9.324;2023-05-07T14:32:01;3.97;;;1.97;;
17451;SDS011;8843;48.838;9.324;2023-05-07T14:34:28;3.13;;;1.77;;
17451;SDS011;8843;48.838;9.324;2023-05-07T14:36:57;5.30;;;2.00;;
17451;SDS011;8843;48.838;9.324;2023-05-07T14:39:23;5.03;;;2.00;;
17451;SDS011;8843;48.838;9.324;2023-05-07T14:41:51;3.90;;;1.63;;
17451;SDS011;8843;48.838;9.324;2023-05-07T14:44:19;3.10;;;1.70;;
17451;SDS011;8843;48.838;9.324;2023-05-07T14:46:46;6.43;;;1.80;;
17451;SDS011;8843;48.838;9.324;2023-05-07T14:49:13;5.33;;;1.87;;
17451;SDS011;8843;48.838;9.324;2023-05-07T14:51:42;3.80;;;1.70;;
17451;SDS011;8843;48.838;9.324;2023-05-07T14:54:11;2.53;;;1.80;;
17451;SDS011;8843;48.838;9.324;2023-05-07T14:56:38;2.50;;;2.03;;
17451;SDS011;8843;48.838;9.324;2023-05-07T14:59:06;3.30;;;1.70;;
17451;SDS011;8843;48.838;9.324;2023-05-07T15:01:34;5.40;;;1.80;;
17451;SDS011;8843;48.838;9.324;2023-05-07T15:04:02;1.70;;;1.60;;
17451;SDS011;8843;48.838;9.324;2023-05-07T15:06:29;2.77;;;1.80;;
17451;SDS011;8843;48.838;9.324;2023-05-07T15:08:56;2.73;;;1.80;;
17451;SDS011;8843;48.838;9.324;2023-05-07T15:11:25;2.63;;;1.50;;
17451;SDS011;8843;48.838;9.324;2023-05-07T15:13:52;2.60;;;1.70;;